Meteorología y climatología de Navarra
Datos de la estación - Meteo Navarra

Estación de Sartaguda GN

Altitud 310 m.


Datos desde el 15/02/2020 hasta el 16/02/2020 en horario solar
Los datos son PROVISIONALES

Anterior Página 1 de 1 Siguiente Descargar: Formato para Excel 2000 o superior   Formato csv   Formato para OpenOffice Calc
Fecha Temperatura Humedad relativa Radiación global Insolación Precipitación Vel. viento 10 m Vel. viento 10 m Dir. viento 10 m
ºC % W/m² s l/m² m/s km/h º
15/02/2020 0:00 5.7 89 0.0 0 0.0 0.7 2.5 305
15/02/2020 0:10 5.8 90 0.0 0 0.0 0.3 0.9 298
15/02/2020 0:20 5.6 92 0.0 0 0.0 0.4 1.3 246
15/02/2020 0:30 4.9 92 0.0 0 0.0 0.7 2.6 231
15/02/2020 0:40 5.0 93 0.0 0 0.0 0.9 3.2 260
15/02/2020 0:50 5.3 91 0.0 0 0.0 0.9 3.1 255
15/02/2020 1:00 4.8 92 0.0 0 0.0 0.9 3.3 280
15/02/2020 1:10 4.7 90 0.0 0 0.0 0.3 1.2 285
15/02/2020 1:20 4.7 94 0.0 0 0.0 0.7 2.5 192
15/02/2020 1:30 4.5 93 0.0 0 0.0 1.0 3.6 351
15/02/2020 1:40 4.3 92 0.0 0 0.0 0.7 2.4 324
15/02/2020 1:50 4.2 92 0.0 0 0.0 0.6 2.0 292
15/02/2020 2:00 3.7 93 0.0 0 0.0 0.4 1.3 197
15/02/2020 2:10 3.6 93 0.0 0 0.0 0.3 1.1 45
15/02/2020 2:20 3.7 93 0.0 0 0.0 0.7 2.4 302
15/02/2020 2:30 3.3 93 0.0 0 0.0 0.4 1.3 228
15/02/2020 2:40 3.0 93 0.0 0 0.0 0.6 2.2 263
15/02/2020 2:50 3.1 93 0.0 0 0.0 1.3 4.8 268
15/02/2020 3:00 3.5 94 0.0 0 0.0 1.9 6.7 284
15/02/2020 3:10 3.6 94 0.0 0 0.0 1.0 3.4 292
15/02/2020 3:20 3.5 93 0.0 0 0.0 1.3 4.8 292
15/02/2020 3:30 3.6 93 0.0 0 0.0 0.9 3.3 284
15/02/2020 3:40 3.5 93 0.0 0 0.0 0.9 3.2 333
15/02/2020 3:50 3.4 93 0.0 0 0.0 1.6 5.7 321
15/02/2020 4:00 3.8 95 0.0 0 0.0 1.4 4.9 306
15/02/2020 4:10 3.8 95 0.0 0 0.0 1.5 5.4 314
15/02/2020 4:20 4.0 95 0.0 0 0.0 1.0 3.6 319
15/02/2020 4:30 2.9 94 0.0 0 0.0 0.7 2.4 196
15/02/2020 4:40 3.0 95 0.0 0 0.0 1.0 3.6 270
15/02/2020 4:50 2.7 94 0.0 0 0.0 0.4 1.5 299
15/02/2020 5:00 2.5 94 0.0 0 0.0 0.7 2.6 238
15/02/2020 5:10 2.7 95 0.0 0 0.0 0.8 3.0 230
15/02/2020 5:20 2.7 96 0.0 0 0.0 0.4 1.3 216
15/02/2020 5:30 2.3 96 0.0 0 0.0 0.5 1.9 131
15/02/2020 5:40 2.0 95 0.0 0 0.0 0.8 3.0 58
15/02/2020 5:50 1.5 94 0.0 0 0.0 0.6 2.3 19
15/02/2020 6:00 1.5 95 0.0 0 0.0 0.5 1.7 299
15/02/2020 6:10 1.2 94 0.0 0 0.0 0.4 1.4 6
15/02/2020 6:20 1.1 95 0.0 0 0.0 0.5 1.7 359
15/02/2020 6:30 1.1 95 0.0 0 0.0 0.4 1.5 315
15/02/2020 6:40 0.9 96 0.0 0 0.0 0.9 3.1 249
15/02/2020 6:50 1.1 96 0.0 0 0.0 0.6 2.3 317
15/02/2020 7:00 0.9 96 0.0 0 0.0 0.3 1.2 310
15/02/2020 7:10 0.9 96 0.0 0 0.0 0.7 2.5 313
15/02/2020 7:20 1.3 97 13.1 0 0.0 0.6 2.2 264
15/02/2020 7:30 1.2 96 33.0 396 0.0 0.6 2.2 254
15/02/2020 7:40 1.1 96 53.7 600 0.0 0.2 0.8 16
15/02/2020 7:50 1.4 96 75.9 600 0.0 0.8 3.0 31
15/02/2020 8:00 1.5 96 84.5 600 0.0 0.7 2.7 85
15/02/2020 8:10 2.1 96 111.0 600 0.0 0.2 0.5 344
15/02/2020 8:20 2.4 96 168.0 600 0.0 0.6 2.3 58
15/02/2020 8:30 3.3 96 222.0 600 0.0 0.3 0.9 240
15/02/2020 8:40 4.1 96 248.7 600 0.0 0.6 2.1 208
15/02/2020 8:50 5.0 94 252.0 600 0.0 0.3 1.2 28
15/02/2020 9:00 5.2 92 253.1 600 0.0 1.4 5.1 16
15/02/2020 9:10 5.5 92 271.7 600 0.0 1.3 4.7 6
15/02/2020 9:20 6.1 91 300.3 600 0.0 1.6 5.6 331
15/02/2020 9:30 6.5 90 332.7 600 0.0 2.1 7.5 323
15/02/2020 9:40 7.0 90 370.6 600 0.0 1.5 5.3 336
15/02/2020 9:50 7.9 87 397.3 600 0.0 2.0 7.1 332
15/02/2020 10:00 8.5 84 415.5 600 0.0 1.7 6.1 347
15/02/2020 10:10 8.8 81 439.1 600 0.0 1.4 5.1 338
15/02/2020 10:20 9.6 79 468.4 600 0.0 0.7 2.6 25
15/02/2020 10:30 10.5 76 485.5 600 0.0 0.4 1.5 61
15/02/2020 10:40 11.2 72 499.6 600 0.0 0.6 2.2 57
15/02/2020 10:50 12.1 70 516.4 600 0.0 0.4 1.4 114
15/02/2020 11:00 12.0 70 533.3 600 0.0 0.8 2.9 337
15/02/2020 11:10 12.3 68 545.4 600 0.0 0.4 1.5 234
15/02/2020 11:20 13.2 67 557.8 600 0.0 0.4 1.6 105
15/02/2020 11:30 13.4 65 569.1 600 0.0 0.4 1.4 55
15/02/2020 11:40 13.8 64 580.5 600 0.0 0.7 2.6 140
15/02/2020 11:50 14.2 63 589.0 600 0.0 0.7 2.4 103
15/02/2020 12:00 14.2 63 595.6 600 0.0 0.7 2.4 253
15/02/2020 12:10 14.0 63 600.9 600 0.0 1.1 3.9 60
15/02/2020 12:20 14.3 62 604.2 600 0.0 0.6 2.0 198
15/02/2020 12:30 14.9 60 608.5 600 0.0 0.5 1.9 181
15/02/2020 12:40 14.9 61 608.3 600 0.0 1.5 5.2 127
15/02/2020 12:50 14.7 61 591.2 600 0.0 1.4 5.0 159
15/02/2020 13:00 15.0 61 510.7 600 0.0 1.4 5.0 191
15/02/2020 13:10 14.8 63 518.7 600 0.0 1.6 5.8 142
15/02/2020 13:20 15.0 62 571.5 600 0.0 1.6 5.7 117
15/02/2020 13:30 15.2 61 587.0 600 0.0 1.7 6.2 124
15/02/2020 13:40 15.0 61 377.2 600 0.0 2.0 7.2 126
15/02/2020 13:50 14.6 61 396.3 600 0.0 2.1 7.5 139
15/02/2020 14:00 14.9 62 345.0 600 0.0 1.2 4.5 135
15/02/2020 14:10 15.0 61 325.5 600 0.0 1.5 5.4 117
15/02/2020 14:20 15.0 62 358.4 600 0.0 2.2 7.8 135
15/02/2020 14:30 15.0 63 333.8 600 0.0 1.7 6.2 114
15/02/2020 14:40 15.1 61 368.9 600 0.0 2.0 7.3 151
15/02/2020 14:50 15.3 61 279.5 368 0.0 0.9 3.3 140
15/02/2020 15:00 15.5 62 326.5 600 0.0 0.6 2.3 116
15/02/2020 15:10 15.5 60 267.1 600 0.0 0.8 2.8 180
15/02/2020 15:20 15.6 60 218.0 600 0.0 0.4 1.4 177
15/02/2020 15:30 15.6 60 194.8 348 0.0 0.2 0.6 95
15/02/2020 15:40 15.2 61 145.3 0 0.0 1.2 4.2 198
15/02/2020 15:50 15.0 62 111.0 0 0.0 0.7 2.6 191
15/02/2020 16:00 14.9 63 93.4 0 0.0 0.2 0.8 196
15/02/2020 16:10 15.0 63 84.0 0 0.0 0.1 0.2 320
15/02/2020 16:20 15.0 62 78.5 0 0.0 0.0 0.1 320
15/02/2020 16:30 14.7 64 70.3 0 0.0 0.3 1.2 152
15/02/2020 16:40 14.3 68 54.0 0 0.0 1.0 3.5 163
15/02/2020 16:50 13.8 69 40.2 0 0.0 1.4 5.0 180
15/02/2020 17:00 13.9 68 34.2 0 0.0 0.4 1.3 223
15/02/2020 17:10 13.9 70 23.8 0 0.0 0.4 1.3 242
15/02/2020 17:20 13.5 72 21.7 0 0.0 0.7 2.3 308
15/02/2020 17:30 13.2 73 16.0 0 0.0 0.6 2.0 330
15/02/2020 17:40 13.0 74 0.0 0 0.0 0.4 1.5 277
15/02/2020 17:50 12.3 76 0.0 0 0.0 0.5 1.6 284
15/02/2020 18:00 12.2 76 0.0 0 0.0 0.4 1.4 294
15/02/2020 18:10 11.7 78 0.0 0 0.0 0.1 0.3 155
15/02/2020 18:20 11.4 79 0.0 0 0.0 0.2 0.8 315
15/02/2020 18:30 11.0 81 0.0 0 0.0 0.7 2.4 318
15/02/2020 18:40 10.7 79 0.0 0 0.0 0.7 2.6 286
15/02/2020 18:50 10.3 79 0.0 0 0.0 0.8 2.9 274
15/02/2020 19:00 9.8 81 0.0 0 0.0 0.8 2.7 269
15/02/2020 19:10 9.6 80 0.0 0 0.0 0.8 3.0 288
15/02/2020 19:20 9.3 81 0.0 0 0.0 0.7 2.5 295
15/02/2020 19:30 8.9 83 0.0 0 0.0 0.4 1.4 322
15/02/2020 19:40 8.5 84 0.0 0 0.0 0.4 1.4 344
15/02/2020 19:50 8.2 85 0.0 0 0.0 0.4 1.3 259
15/02/2020 20:00 7.6 86 0.0 0 0.0 1.3 4.6 310
15/02/2020 20:10 7.9 87 0.0 0 0.0 2.2 7.9 277
15/02/2020 20:20 7.9 87 0.0 0 0.0 1.4 4.9 274
15/02/2020 20:30 7.7 86 0.0 0 0.0 0.9 3.1 292
15/02/2020 20:40 7.5 86 0.0 0 0.0 1.2 4.4 282
15/02/2020 20:50 7.0 86 0.0 0 0.0 0.2 0.6 286
15/02/2020 21:00 6.7 86 0.0 0 0.0 0.1 0.4 89
15/02/2020 21:10 6.3 88 0.0 0 0.0 0.1 0.4 45
15/02/2020 21:20 6.2 88 0.0 0 0.0 0.2 0.7 319
15/02/2020 21:30 5.9 88 0.0 0 0.0 0.6 2.1 290
15/02/2020 21:40 5.7 90 0.0 0 0.0 1.5 5.5 285
15/02/2020 21:50 5.9 91 0.0 0 0.0 1.7 6.1 293
15/02/2020 22:00 5.9 91 0.0 0 0.0 1.3 4.8 300
15/02/2020 22:10 5.9 91 0.0 0 0.0 1.4 5.0 314
15/02/2020 22:20 6.0 91 0.0 0 0.0 1.3 4.6 316
15/02/2020 22:30 5.8 92 0.0 0 0.0 1.7 6.3 313
15/02/2020 22:40 6.0 93 0.0 0 0.0 1.4 5.1 309
15/02/2020 22:50 6.1 93 0.0 0 0.0 1.2 4.5 270
15/02/2020 23:00 6.0 93 0.0 0 0.0 0.8 3.0 244
15/02/2020 23:10 5.3 93 0.0 0 0.0 1.0 3.7 186
15/02/2020 23:20 4.8 93 0.0 0 0.0 1.0 3.5 123
15/02/2020 23:30 4.6 91 0.0 0 0.0 1.1 3.9 77
15/02/2020 23:40 4.2 90 0.0 0 0.0 1.3 4.6 94
15/02/2020 23:50 3.7 93 0.0 0 0.0 0.5 1.7 108
Anterior Página 1 de 1 Siguiente

NOTA: Tipo de datos según el color:
   - Valores diarios o 10 minutos correctos
   - Valores diarios calculados a partir de un número de datos 10 minutos menor que 144 y mayor que 120, o de un número de datos semihorarios menor que 48 y mayor que 40 (caso de las estaciones de INTIA y del Ministerio)
   - Valores diez minutos estimados


Contacto        Enlaces        Aviso legal